sensor_id;sensor_type;location;lat;lon;timestamp;P1;durP1;ratioP1;P2;durP2;ratioP2
23684;SDS011;12020;51.384;6.908;2023-03-09T00:02:01;12.17;;;9.70;;
23684;SDS011;12020;51.384;6.908;2023-03-09T00:04:27;11.80;;;9.13;;
23684;SDS011;12020;51.384;6.908;2023-03-09T00:06:53;12.13;;;9.30;;
23684;SDS011;12020;51.384;6.908;2023-03-09T00:09:19;11.57;;;9.53;;
23684;SDS011;12020;51.384;6.908;2023-03-09T00:11:45;11.77;;;8.70;;
23684;SDS011;12020;51.384;6.908;2023-03-09T00:14:15;12.57;;;9.00;;
23684;SDS011;12020;51.384;6.908;2023-03-09T00:16:45;12.17;;;8.93;;
23684;SDS011;12020;51.384;6.908;2023-03-09T00:19:13;12.30;;;8.73;;
23684;SDS011;12020;51.384;6.908;2023-03-09T00:21:47;12.53;;;9.00;;
23684;SDS011;12020;51.384;6.908;2023-03-09T00:24:20;11.87;;;9.20;;
23684;SDS011;12020;51.384;6.908;2023-03-09T00:26:56;11.93;;;9.60;;
23684;SDS011;12020;51.384;6.908;2023-03-09T00:29:26;11.67;;;9.40;;
23684;SDS011;12020;51.384;6.908;2023-03-09T00:31:56;12.63;;;9.37;;
23684;SDS011;12020;51.384;6.908;2023-03-09T00:34:24;12.30;;;9.77;;
23684;SDS011;12020;51.384;6.908;2023-03-09T00:36:50;12.70;;;9.97;;
23684;SDS011;12020;51.384;6.908;2023-03-09T00:39:17;14.17;;;11.23;;
23684;SDS011;12020;51.384;6.908;2023-03-09T00:41:43;13.80;;;10.60;;
23684;SDS011;12020;51.384;6.908;2023-03-09T00:44:10;14.63;;;11.17;;
23684;SDS011;12020;51.384;6.908;2023-03-09T00:46:37;15.63;;;11.93;;
23684;SDS011;12020;51.384;6.908;2023-03-09T00:49:03;15.87;;;11.90;;
23684;SDS011;12020;51.384;6.908;2023-03-09T00:51:34;15.80;;;11.67;;
23684;SDS011;12020;51.384;6.908;2023-03-09T00:54:03;15.03;;;11.73;;
23684;SDS011;12020;51.384;6.908;2023-03-09T00:56:30;15.67;;;11.83;;
23684;SDS011;12020;51.384;6.908;2023-03-09T00:58:57;15.50;;;11.07;;
23684;SDS011;12020;51.384;6.908;2023-03-09T01:01:25;16.00;;;11.40;;
23684;SDS011;12020;51.384;6.908;2023-03-09T01:03:52;14.90;;;10.83;;
23684;SDS011;12020;51.384;6.908;2023-03-09T01:06:19;15.13;;;11.40;;
23684;SDS011;12020;51.384;6.908;2023-03-09T01:08:47;13.80;;;10.27;;
23684;SDS011;12020;51.384;6.908;2023-03-09T01:11:13;14.80;;;10.77;;
23684;SDS011;12020;51.384;6.908;2023-03-09T01:13:40;14.83;;;11.20;;
23684;SDS011;12020;51.384;6.908;2023-03-09T01:16:06;14.80;;;11.00;;
23684;SDS011;12020;51.384;6.908;2023-03-09T01:18:38;14.43;;;10.67;;
23684;SDS011;12020;51.384;6.908;2023-03-09T01:21:04;14.70;;;11.40;;
23684;SDS011;12020;51.384;6.908;2023-03-09T01:23:31;13.70;;;10.40;;
23684;SDS011;12020;51.384;6.908;2023-03-09T01:25:57;14.90;;;11.50;;
23684;SDS011;12020;51.384;6.908;2023-03-09T01:30:51;16.67;;;12.27;;
23684;SDS011;12020;51.384;6.908;2023-03-09T01:35:49;17.10;;;11.90;;
23684;SDS011;12020;51.384;6.908;2023-03-09T01:38:15;16.37;;;12.07;;
23684;SDS011;12020;51.384;6.908;2023-03-09T01:40:44;18.80;;;12.33;;
23684;SDS011;12020;51.384;6.908;2023-03-09T01:54:21;22.00;;;15.23;;
23684;SDS011;12020;51.384;6.908;2023-03-09T01:56:55;23.07;;;14.83;;
23684;SDS011;12020;51.384;6.908;2023-03-09T01:59:26;21.57;;;15.30;;
23684;SDS011;12020;51.384;6.908;2023-03-09T02:01:55;21.07;;;15.13;;
23684;SDS011;12020;51.384;6.908;2023-03-09T02:04:30;21.93;;;14.53;;
23684;SDS011;12020;51.384;6.908;2023-03-09T02:07:00;23.47;;;14.97;;
23684;SDS011;12020;51.384;6.908;2023-03-09T02:11:57;27.00;;;17.20;;
23684;SDS011;12020;51.384;6.908;2023-03-09T02:14:26;28.00;;;17.67;;
23684;SDS011;12020;51.384;6.908;2023-03-09T02:16:56;27.13;;;17.83;;
23684;SDS011;12020;51.384;6.908;2023-03-09T02:19:32;30.77;;;18.57;;
23684;SDS011;12020;51.384;6.908;2023-03-09T02:22:23;27.00;;;17.47;;
23684;SDS011;12020;51.384;6.908;2023-03-09T02:25:00;29.70;;;19.13;;
23684;SDS011;12020;51.384;6.908;2023-03-09T02:27:29;33.17;;;19.70;;
23684;SDS011;12020;51.384;6.908;2023-03-09T02:29:55;30.83;;;19.73;;
23684;SDS011;12020;51.384;6.908;2023-03-09T02:32:22;31.80;;;20.20;;
23684;SDS011;12020;51.384;6.908;2023-03-09T02:34:50;34.53;;;20.67;;
23684;SDS011;12020;51.384;6.908;2023-03-09T02:37:30;34.20;;;20.83;;
23684;SDS011;12020;51.384;6.908;2023-03-09T02:39:59;35.23;;;20.53;;
23684;SDS011;12020;51.384;6.908;2023-03-09T02:45:04;41.40;;;22.73;;
23684;SDS011;12020;51.384;6.908;2023-03-09T02:47:32;37.53;;;22.27;;
23684;SDS011;12020;51.384;6.908;2023-03-09T02:50:02;39.50;;;22.70;;
23684;SDS011;12020;51.384;6.908;2023-03-09T02:55:00;41.73;;;22.53;;
23684;SDS011;12020;51.384;6.908;2023-03-09T02:57:26;39.37;;;22.70;;
23684;SDS011;12020;51.384;6.908;2023-03-09T02:59:52;38.17;;;22.57;;
23684;SDS011;12020;51.384;6.908;2023-03-09T03:02:18;41.03;;;22.97;;
23684;SDS011;12020;51.384;6.908;2023-03-09T03:04:45;41.47;;;22.60;;
23684;SDS011;12020;51.384;6.908;2023-03-09T03:07:12;38.40;;;21.53;;
23684;SDS011;12020;51.384;6.908;2023-03-09T03:09:38;40.20;;;22.43;;
23684;SDS011;12020;51.384;6.908;2023-03-09T03:12:04;40.03;;;22.00;;
23684;SDS011;12020;51.384;6.908;2023-03-09T03:14:31;40.53;;;21.60;;
23684;SDS011;12020;51.384;6.908;2023-03-09T03:16:57;34.67;;;19.60;;
23684;SDS011;12020;51.384;6.908;2023-03-09T03:19:23;33.87;;;20.20;;
23684;SDS011;12020;51.384;6.908;2023-03-09T03:21:50;35.03;;;19.90;;
23684;SDS011;12020;51.384;6.908;2023-03-09T03:24:17;33.97;;;19.67;;
23684;SDS011;12020;51.384;6.908;2023-03-09T03:26:43;34.43;;;19.23;;
23684;SDS011;12020;51.384;6.908;2023-03-09T03:29:09;35.43;;;19.30;;
23684;SDS011;12020;51.384;6.908;2023-03-09T03:31:36;31.27;;;18.97;;
23684;SDS011;12020;51.384;6.908;2023-03-09T03:34:03;28.67;;;17.70;;
23684;SDS011;12020;51.384;6.908;2023-03-09T03:36:28;29.50;;;17.97;;
23684;SDS011;12020;51.384;6.908;2023-03-09T03:38:54;29.27;;;18.70;;
23684;SDS011;12020;51.384;6.908;2023-03-09T03:41:20;28.47;;;17.57;;
23684;SDS011;12020;51.384;6.908;2023-03-09T03:43:53;31.30;;;19.63;;
23684;SDS011;12020;51.384;6.908;2023-03-09T03:48:48;29.30;;;17.73;;
23684;SDS011;12020;51.384;6.908;2023-03-09T03:51:14;28.97;;;18.83;;
23684;SDS011;12020;51.384;6.908;2023-03-09T03:53:42;27.87;;;16.77;;
23684;SDS011;12020;51.384;6.908;2023-03-09T03:56:09;29.73;;;18.57;;
23684;SDS011;12020;51.384;6.908;2023-03-09T03:58:36;28.97;;;18.23;;
23684;SDS011;12020;51.384;6.908;2023-03-09T04:01:03;30.17;;;18.57;;
23684;SDS011;12020;51.384;6.908;2023-03-09T04:03:30;31.23;;;19.17;;
23684;SDS011;12020;51.384;6.908;2023-03-09T04:05:55;32.97;;;20.47;;
23684;SDS011;12020;51.384;6.908;2023-03-09T04:08:21;33.83;;;19.33;;
23684;SDS011;12020;51.384;6.908;2023-03-09T04:10:47;33.80;;;20.20;;
23684;SDS011;12020;51.384;6.908;2023-03-09T04:13:13;32.70;;;19.47;;
23684;SDS011;12020;51.384;6.908;2023-03-09T04:15:39;31.93;;;20.10;;
23684;SDS011;12020;51.384;6.908;2023-03-09T04:18:05;33.67;;;20.50;;
23684;SDS011;12020;51.384;6.908;2023-03-09T04:20:32;30.60;;;19.80;;
23684;SDS011;12020;51.384;6.908;2023-03-09T04:22:58;29.87;;;18.70;;
23684;SDS011;12020;51.384;6.908;2023-03-09T04:25:27;29.03;;;18.47;;
23684;SDS011;12020;51.384;6.908;2023-03-09T04:27:53;31.87;;;20.57;;
23684;SDS011;12020;51.384;6.908;2023-03-09T04:30:20;33.57;;;20.03;;
23684;SDS011;12020;51.384;6.908;2023-03-09T04:32:47;30.83;;;19.37;;
23684;SDS011;12020;51.384;6.908;2023-03-09T04:35:13;32.70;;;19.93;;
23684;SDS011;12020;51.384;6.908;2023-03-09T04:37:40;31.47;;;19.50;;
23684;SDS011;12020;51.384;6.908;2023-03-09T04:40:06;30.23;;;19.00;;
23684;SDS011;12020;51.384;6.908;2023-03-09T04:42:32;34.23;;;19.10;;
23684;SDS011;12020;51.384;6.908;2023-03-09T04:44:58;31.27;;;18.97;;
23684;SDS011;12020;51.384;6.908;2023-03-09T04:47:25;29.10;;;18.37;;
23684;SDS011;12020;51.384;6.908;2023-03-09T04:49:51;30.37;;;18.70;;
23684;SDS011;12020;51.384;6.908;2023-03-09T04:52:22;29.80;;;18.87;;
23684;SDS011;12020;51.384;6.908;2023-03-09T04:54:49;31.17;;;18.43;;
23684;SDS011;12020;51.384;6.908;2023-03-09T04:57:15;32.97;;;19.73;;
23684;SDS011;12020;51.384;6.908;2023-03-09T04:59:41;30.83;;;18.83;;
23684;SDS011;12020;51.384;6.908;2023-03-09T05:02:09;31.50;;;19.63;;
23684;SDS011;12020;51.384;6.908;2023-03-09T05:04:35;33.13;;;19.50;;
23684;SDS011;12020;51.384;6.908;2023-03-09T05:07:02;32.60;;;19.83;;
23684;SDS011;12020;51.384;6.908;2023-03-09T05:09:28;32.10;;;19.50;;
23684;SDS011;12020;51.384;6.908;2023-03-09T05:11:55;34.97;;;20.53;;
23684;SDS011;12020;51.384;6.908;2023-03-09T05:14:23;33.83;;;20.60;;
23684;SDS011;12020;51.384;6.908;2023-03-09T05:16:50;36.07;;;20.97;;
23684;SDS011;12020;51.384;6.908;2023-03-09T05:19:17;35.90;;;25.70;;
23684;SDS011;12020;51.384;6.908;2023-03-09T05:21:43;38.92;;;26.88;;
23684;SDS011;12020;51.384;6.908;2023-03-09T05:24:09;38.20;;;27.60;;
23684;SDS011;12020;51.384;6.908;2023-03-09T05:26:35;39.65;;;27.75;;
23684;SDS011;12020;51.384;6.908;2023-03-09T05:29:02;39.50;;;27.77;;
23684;SDS011;12020;51.384;6.908;2023-03-09T05:31:29;39.78;;;27.77;;
23684;SDS011;12020;51.384;6.908;2023-03-09T05:36:24;38.28;;;28.25;;
23684;SDS011;12020;51.384;6.908;2023-03-09T05:38:58;42.72;;;28.60;;
23684;SDS011;12020;51.384;6.908;2023-03-09T05:41:32;42.03;;;28.33;;
23684;SDS011;12020;51.384;6.908;2023-03-09T05:43:59;41.15;;;28.35;;
23684;SDS011;12020;51.384;6.908;2023-03-09T05:46:25;42.63;;;28.75;;
23684;SDS011;12020;51.384;6.908;2023-03-09T05:51:27;42.88;;;29.65;;
23684;SDS011;12020;51.384;6.908;2023-03-09T05:56:23;41.88;;;29.48;;
23684;SDS011;12020;51.384;6.908;2023-03-09T05:58:49;45.08;;;30.55;;
23684;SDS011;12020;51.384;6.908;2023-03-09T06:01:23;47.10;;;30.27;;
23684;SDS011;12020;51.384;6.908;2023-03-09T06:03:51;44.53;;;30.35;;
23684;SDS011;12020;51.384;6.908;2023-03-09T06:06:18;47.28;;;30.65;;
23684;SDS011;12020;51.384;6.908;2023-03-09T06:08:45;51.00;;;32.22;;
23684;SDS011;12020;51.384;6.908;2023-03-09T06:11:12;49.13;;;32.17;;
23684;SDS011;12020;51.384;6.908;2023-03-09T06:13:39;47.55;;;31.55;;
23684;SDS011;12020;51.384;6.908;2023-03-09T06:16:07;49.85;;;32.70;;
23684;SDS011;12020;51.384;6.908;2023-03-09T06:18:37;50.08;;;32.72;;
23684;SDS011;12020;51.384;6.908;2023-03-09T06:21:05;49.88;;;33.15;;
23684;SDS011;12020;51.384;6.908;2023-03-09T06:26:03;49.58;;;33.20;;
23684;SDS011;12020;51.384;6.908;2023-03-09T06:28:41;49.10;;;33.58;;
23684;SDS011;12020;51.384;6.908;2023-03-09T06:31:11;51.92;;;34.45;;
23684;SDS011;12020;51.384;6.908;2023-03-09T06:33:41;46.92;;;32.58;;
23684;SDS011;12020;51.384;6.908;2023-03-09T06:36:09;49.58;;;33.28;;
23684;SDS011;12020;51.384;6.908;2023-03-09T06:38:35;46.85;;;32.30;;
23684;SDS011;12020;51.384;6.908;2023-03-09T06:41:01;48.30;;;32.75;;
23684;SDS011;12020;51.384;6.908;2023-03-09T06:43:26;46.08;;;32.95;;
23684;SDS011;12020;51.384;6.908;2023-03-09T06:45:52;49.38;;;33.20;;
23684;SDS011;12020;51.384;6.908;2023-03-09T06:48:18;48.47;;;33.33;;
23684;SDS011;12020;51.384;6.908;2023-03-09T06:50:45;48.13;;;33.57;;
23684;SDS011;12020;51.384;6.908;2023-03-09T06:53:14;48.20;;;32.97;;
23684;SDS011;12020;51.384;6.908;2023-03-09T06:55:40;50.42;;;33.47;;
23684;SDS011;12020;51.384;6.908;2023-03-09T06:58:08;51.13;;;33.15;;
23684;SDS011;12020;51.384;6.908;2023-03-09T07:00:34;51.10;;;33.03;;
23684;SDS011;12020;51.384;6.908;2023-03-09T07:03:03;50.15;;;32.10;;
23684;SDS011;12020;51.384;6.908;2023-03-09T07:05:30;50.65;;;31.65;;
23684;SDS011;12020;51.384;6.908;2023-03-09T07:08:00;44.53;;;29.50;;
23684;SDS011;12020;51.384;6.908;2023-03-09T07:10:25;42.42;;;28.20;;
23684;SDS011;12020;51.384;6.908;2023-03-09T07:12:51;43.57;;;28.53;;
23684;SDS011;12020;51.384;6.908;2023-03-09T07:15:16;44.10;;;29.27;;
23684;SDS011;12020;51.384;6.908;2023-03-09T07:17:42;44.40;;;28.77;;
23684;SDS011;12020;51.384;6.908;2023-03-09T07:20:11;44.67;;;29.10;;
23684;SDS011;12020;51.384;6.908;2023-03-09T07:22:37;45.35;;;29.73;;
23684;SDS011;12020;51.384;6.908;2023-03-09T07:25:03;44.13;;;29.45;;
23684;SDS011;12020;51.384;6.908;2023-03-09T07:27:29;44.27;;;28.97;;
23684;SDS011;12020;51.384;6.908;2023-03-09T07:29:56;43.22;;;29.35;;
23684;SDS011;12020;51.384;6.908;2023-03-09T07:32:21;44.28;;;29.40;;
23684;SDS011;12020;51.384;6.908;2023-03-09T07:34:47;40.72;;;27.80;;
23684;SDS011;12020;51.384;6.908;2023-03-09T07:37:13;37.90;;;26.02;;
23684;SDS011;12020;51.384;6.908;2023-03-09T07:39:38;43.58;;;28.13;;
23684;SDS011;12020;51.384;6.908;2023-03-09T07:42:04;40.67;;;28.13;;
23684;SDS011;12020;51.384;6.908;2023-03-09T07:44:30;40.95;;;27.23;;
23684;SDS011;12020;51.384;6.908;2023-03-09T07:46:56;39.40;;;27.10;;
23684;SDS011;12020;51.384;6.908;2023-03-09T07:49:22;40.50;;;27.23;;
23684;SDS011;12020;51.384;6.908;2023-03-09T07:51:47;40.47;;;27.48;;
23684;SDS011;12020;51.384;6.908;2023-03-09T07:54:13;40.17;;;27.27;;
23684;SDS011;12020;51.384;6.908;2023-03-09T07:56:39;41.17;;;28.37;;
23684;SDS011;12020;51.384;6.908;2023-03-09T07:59:05;43.15;;;28.75;;
23684;SDS011;12020;51.384;6.908;2023-03-09T08:01:31;43.58;;;29.45;;
23684;SDS011;12020;51.384;6.908;2023-03-09T08:03:57;41.60;;;28.10;;
23684;SDS011;12020;51.384;6.908;2023-03-09T08:06:23;41.72;;;27.98;;
23684;SDS011;12020;51.384;6.908;2023-03-09T08:08:50;43.50;;;28.42;;
23684;SDS011;12020;51.384;6.908;2023-03-09T08:11:16;41.50;;;28.48;;
23684;SDS011;12020;51.384;6.908;2023-03-09T08:13:42;42.92;;;29.05;;
23684;SDS011;12020;51.384;6.908;2023-03-09T08:16:08;43.13;;;27.65;;
23684;SDS011;12020;51.384;6.908;2023-03-09T08:18:35;42.70;;;28.33;;
23684;SDS011;12020;51.384;6.908;2023-03-09T08:21:10;38.53;;;26.60;;
23684;SDS011;12020;51.384;6.908;2023-03-09T08:23:38;41.08;;;27.30;;
23684;SDS011;12020;51.384;6.908;2023-03-09T08:26:09;40.75;;;27.88;;
23684;SDS011;12020;51.384;6.908;2023-03-09T08:28:39;42.10;;;27.48;;
23684;SDS011;12020;51.384;6.908;2023-03-09T08:31:08;41.53;;;27.45;;
23684;SDS011;12020;51.384;6.908;2023-03-09T08:33:35;41.92;;;27.95;;
23684;SDS011;12020;51.384;6.908;2023-03-09T08:36:18;38.58;;;25.83;;
23684;SDS011;12020;51.384;6.908;2023-03-09T08:38:45;36.53;;;25.30;;
23684;SDS011;12020;51.384;6.908;2023-03-09T08:41:12;37.55;;;25.55;;
23684;SDS011;12020;51.384;6.908;2023-03-09T08:43:38;36.92;;;25.35;;
23684;SDS011;12020;51.384;6.908;2023-03-09T08:46:04;37.95;;;25.95;;
23684;SDS011;12020;51.384;6.908;2023-03-09T08:48:31;38.60;;;26.30;;
23684;SDS011;12020;51.384;6.908;2023-03-09T08:51:00;38.93;;;22.03;;
23684;SDS011;12020;51.384;6.908;2023-03-09T08:53:27;37.77;;;20.53;;
23684;SDS011;12020;51.384;6.908;2023-03-09T08:55:52;36.87;;;20.93;;
23684;SDS011;12020;51.384;6.908;2023-03-09T08:58:18;35.97;;;20.47;;
23684;SDS011;12020;51.384;6.908;2023-03-09T09:00:44;36.10;;;20.17;;
23684;SDS011;12020;51.384;6.908;2023-03-09T09:03:09;36.90;;;20.97;;
23684;SDS011;12020;51.384;6.908;2023-03-09T09:05:35;37.87;;;20.87;;
23684;SDS011;12020;51.384;6.908;2023-03-09T09:08:01;37.73;;;21.30;;
23684;SDS011;12020;51.384;6.908;2023-03-09T09:10:28;36.77;;;22.03;;
23684;SDS011;12020;51.384;6.908;2023-03-09T09:12:54;39.03;;;22.70;;
23684;SDS011;12020;51.384;6.908;2023-03-09T09:15:19;36.33;;;21.70;;
23684;SDS011;12020;51.384;6.908;2023-03-09T09:17:45;36.10;;;20.80;;
23684;SDS011;12020;51.384;6.908;2023-03-09T09:20:12;37.93;;;20.83;;
23684;SDS011;12020;51.384;6.908;2023-03-09T09:22:39;42.90;;;26.48;;
23684;SDS011;12020;51.384;6.908;2023-03-09T09:25:06;42.95;;;27.63;;
23684;SDS011;12020;51.384;6.908;2023-03-09T09:27:33;42.70;;;27.52;;
23684;SDS011;12020;51.384;6.908;2023-03-09T09:30:00;40.90;;;26.80;;
23684;SDS011;12020;51.384;6.908;2023-03-09T09:34:55;42.67;;;28.38;;
23684;SDS011;12020;51.384;6.908;2023-03-09T09:37:23;42.88;;;28.50;;
23684;SDS011;12020;51.384;6.908;2023-03-09T09:39:48;41.78;;;27.25;;
23684;SDS011;12020;51.384;6.908;2023-03-09T09:42:33;41.73;;;24.27;;
23684;SDS011;12020;51.384;6.908;2023-03-09T09:45:03;38.23;;;22.13;;
23684;SDS011;12020;51.384;6.908;2023-03-09T09:47:34;36.27;;;21.50;;
23684;SDS011;12020;51.384;6.908;2023-03-09T09:50:00;36.53;;;21.27;;
23684;SDS011;12020;51.384;6.908;2023-03-09T09:54:57;40.53;;;25.97;;
23684;SDS011;12020;51.384;6.908;2023-03-09T09:57:41;42.50;;;28.55;;
23684;SDS011;12020;51.384;6.908;2023-03-09T10:00:14;38.17;;;26.27;;
23684;SDS011;12020;51.384;6.908;2023-03-09T10:03:06;39.78;;;27.02;;
23684;SDS011;12020;51.384;6.908;2023-03-09T10:11:20;37.42;;;26.23;;
23684;SDS011;12020;51.384;6.908;2023-03-09T10:16:42;39.63;;;27.25;;
23684;SDS011;12020;51.384;6.908;2023-03-09T10:19:16;41.67;;;28.47;;
23684;SDS011;12020;51.384;6.908;2023-03-09T10:22:01;41.75;;;28.30;;
23684;SDS011;12020;51.384;6.908;2023-03-09T10:24:32;41.97;;;28.60;;
23684;SDS011;12020;51.384;6.908;2023-03-09T10:30:11;42.80;;;28.33;;
23684;SDS011;12020;51.384;6.908;2023-03-09T10:32:39;43.70;;;29.65;;
23684;SDS011;12020;51.384;6.908;2023-03-09T10:38:16;44.63;;;31.05;;
23684;SDS011;12020;51.384;6.908;2023-03-09T10:40:44;45.25;;;30.33;;
23684;SDS011;12020;51.384;6.908;2023-03-09T10:43:33;45.53;;;30.30;;
23684;SDS011;12020;51.384;6.908;2023-03-09T10:48:38;49.88;;;33.47;;
23684;SDS011;12020;51.384;6.908;2023-03-09T10:51:05;51.42;;;32.65;;
23684;SDS011;12020;51.384;6.908;2023-03-09T10:53:43;51.43;;;34.03;;
23684;SDS011;12020;51.384;6.908;2023-03-09T10:56:30;50.22;;;33.38;;
23684;SDS011;12020;51.384;6.908;2023-03-09T10:59:14;53.25;;;34.65;;
23684;SDS011;12020;51.384;6.908;2023-03-09T11:01:43;53.22;;;34.38;;
23684;SDS011;12020;51.384;6.908;2023-03-09T11:04:44;51.80;;;34.15;;
23684;SDS011;12020;51.384;6.908;2023-03-09T11:07:26;48.85;;;33.65;;
23684;SDS011;12020;51.384;6.908;2023-03-09T11:09:53;49.72;;;34.17;;
23684;SDS011;12020;51.384;6.908;2023-03-09T11:12:26;47.65;;;32.92;;
23684;SDS011;12020;51.384;6.908;2023-03-09T11:15:01;48.60;;;34.58;;
23684;SDS011;12020;51.384;6.908;2023-03-09T11:17:37;50.42;;;34.72;;
23684;SDS011;12020;51.384;6.908;2023-03-09T11:31:39;43.88;;;31.23;;
23684;SDS011;12020;51.384;6.908;2023-03-09T11:34:17;43.23;;;31.57;;
23684;SDS011;12020;51.384;6.908;2023-03-09T11:37:36;45.47;;;32.25;;
23684;SDS011;12020;51.384;6.908;2023-03-09T11:45:09;42.65;;;31.48;;
23684;SDS011;12020;51.384;6.908;2023-03-09T11:47:41;46.00;;;32.20;;
23684;SDS011;12020;51.384;6.908;2023-03-09T11:50:11;46.80;;;32.88;;
23684;SDS011;12020;51.384;6.908;2023-03-09T11:52:47;44.43;;;31.23;;
23684;SDS011;12020;51.384;6.908;2023-03-09T11:55:24;42.27;;;30.70;;
23684;SDS011;12020;51.384;6.908;2023-03-09T11:58:00;41.55;;;30.17;;
23684;SDS011;12020;51.384;6.908;2023-03-09T12:00:29;41.58;;;30.15;;
23684;SDS011;12020;51.384;6.908;2023-03-09T12:03:13;42.75;;;30.60;;
23684;SDS011;12020;51.384;6.908;2023-03-09T12:05:43;44.55;;;31.98;;
23684;SDS011;12020;51.384;6.908;2023-03-09T12:08:29;44.60;;;31.73;;
23684;SDS011;12020;51.384;6.908;2023-03-09T12:11:02;46.13;;;32.17;;
23684;SDS011;12020;51.384;6.908;2023-03-09T12:13:35;47.47;;;33.53;;
23684;SDS011;12020;51.384;6.908;2023-03-09T12:16:10;48.05;;;33.80;;
23684;SDS011;12020;51.384;6.908;2023-03-09T12:19:00;48.28;;;33.67;;
23684;SDS011;12020;51.384;6.908;2023-03-09T12:21:49;51.65;;;34.58;;
23684;SDS011;12020;51.384;6.908;2023-03-09T12:24:42;52.67;;;35.35;;
23684;SDS011;12020;51.384;6.908;2023-03-09T12:29:39;50.35;;;35.10;;
23684;SDS011;12020;51.384;6.908;2023-03-09T12:34:58;53.65;;;36.10;;
23684;SDS011;12020;51.384;6.908;2023-03-09T12:42:44;53.80;;;36.67;;
23684;SDS011;12020;51.384;6.908;2023-03-09T12:50:25;51.03;;;35.45;;
23684;SDS011;12020;51.384;6.908;2023-03-09T12:53:14;50.03;;;35.10;;
23684;SDS011;12020;51.384;6.908;2023-03-09T13:00:52;38.80;;;27.92;;
23684;SDS011;12020;51.384;6.908;2023-03-09T13:03:21;40.35;;;29.13;;
23684;SDS011;12020;51.384;6.908;2023-03-09T13:05:54;37.63;;;28.17;;
23684;SDS011;12020;51.384;6.908;2023-03-09T13:08:35;39.92;;;29.33;;
23684;SDS011;12020;51.384;6.908;2023-03-09T13:11:27;36.83;;;28.08;;
23684;SDS011;12020;51.384;6.908;2023-03-09T13:16:57;40.70;;;29.60;;
23684;SDS011;12020;51.384;6.908;2023-03-09T13:24:43;39.17;;;28.30;;
23684;SDS011;12020;51.384;6.908;2023-03-09T13:29:46;36.70;;;27.63;;
23684;SDS011;12020;51.384;6.908;2023-03-09T13:32:18;38.17;;;28.30;;
23684;SDS011;12020;51.384;6.908;2023-03-09T13:34:50;37.22;;;28.35;;
23684;SDS011;12020;51.384;6.908;2023-03-09T13:37:21;39.13;;;28.33;;
23684;SDS011;12020;51.384;6.908;2023-03-09T13:40:05;40.30;;;29.15;;
23684;SDS011;12020;51.384;6.908;2023-03-09T13:42:52;42.90;;;30.45;;
23684;SDS011;12020;51.384;6.908;2023-03-09T13:45:20;42.13;;;29.30;;
23684;SDS011;12020;51.384;6.908;2023-03-09T13:47:54;40.08;;;28.83;;
23684;SDS011;12020;51.384;6.908;2023-03-09T13:50:30;40.42;;;28.73;;
23684;SDS011;12020;51.384;6.908;2023-03-09T13:53:01;42.27;;;29.13;;
23684;SDS011;12020;51.384;6.908;2023-03-09T13:55:29;39.55;;;28.17;;
23684;SDS011;12020;51.384;6.908;2023-03-09T13:58:14;38.25;;;27.30;;
23684;SDS011;12020;51.384;6.908;2023-03-09T14:00:51;38.50;;;25.67;;
23684;SDS011;12020;51.384;6.908;2023-03-09T14:03:19;37.63;;;26.33;;
23684;SDS011;12020;51.384;6.908;2023-03-09T14:05:55;34.58;;;24.88;;
23684;SDS011;12020;51.384;6.908;2023-03-09T14:08:32;34.67;;;25.67;;
23684;SDS011;12020;51.384;6.908;2023-03-09T14:11:05;38.15;;;26.40;;
23684;SDS011;12020;51.384;6.908;2023-03-09T14:13:31;37.27;;;26.13;;
23684;SDS011;12020;51.384;6.908;2023-03-09T14:15:59;38.22;;;26.30;;
23684;SDS011;12020;51.384;6.908;2023-03-09T14:18:35;38.50;;;26.40;;
23684;SDS011;12020;51.384;6.908;2023-03-09T14:21:25;41.50;;;28.08;;
23684;SDS011;12020;51.384;6.908;2023-03-09T14:23:53;42.03;;;28.17;;
23684;SDS011;12020;51.384;6.908;2023-03-09T14:26:45;38.08;;;26.63;;
23684;SDS011;12020;51.384;6.908;2023-03-09T14:31:46;39.08;;;26.48;;
23684;SDS011;12020;51.384;6.908;2023-03-09T14:44:31;39.78;;;26.27;;
23684;SDS011;12020;51.384;6.908;2023-03-09T14:46:58;39.55;;;26.88;;
23684;SDS011;12020;51.384;6.908;2023-03-09T14:49:24;36.67;;;25.60;;
23684;SDS011;12020;51.384;6.908;2023-03-09T14:51:50;36.17;;;24.95;;
23684;SDS011;12020;51.384;6.908;2023-03-09T14:54:15;37.30;;;25.23;;
23684;SDS011;12020;51.384;6.908;2023-03-09T14:56:44;36.83;;;25.20;;
23684;SDS011;12020;51.384;6.908;2023-03-09T14:59:11;34.97;;;24.45;;
23684;SDS011;12020;51.384;6.908;2023-03-09T15:01:39;37.30;;;25.80;;
23684;SDS011;12020;51.384;6.908;2023-03-09T15:04:12;35.28;;;25.33;;
23684;SDS011;12020;51.384;6.908;2023-03-09T15:06:42;36.08;;;24.02;;
23684;SDS011;12020;51.384;6.908;2023-03-09T15:09:09;31.63;;;22.48;;
23684;SDS011;12020;51.384;6.908;2023-03-09T15:11:38;27.88;;;20.88;;
23684;SDS011;12020;51.384;6.908;2023-03-09T15:14:08;27.00;;;20.52;;
23684;SDS011;12020;51.384;6.908;2023-03-09T15:16:38;25.05;;;19.10;;
23684;SDS011;12020;51.384;6.908;2023-03-09T15:19:04;26.67;;;19.48;;
23684;SDS011;12020;51.384;6.908;2023-03-09T15:21:29;25.70;;;19.20;;
23684;SDS011;12020;51.384;6.908;2023-03-09T15:23:55;24.58;;;18.88;;
23684;SDS011;12020;51.384;6.908;2023-03-09T15:26:20;23.27;;;18.35;;
23684;SDS011;12020;51.384;6.908;2023-03-09T15:28:46;22.48;;;18.25;;
23684;SDS011;12020;51.384;6.908;2023-03-09T15:31:13;22.50;;;18.08;;
23684;SDS011;12020;51.384;6.908;2023-03-09T15:33:38;23.50;;;17.95;;
23684;SDS011;12020;51.384;6.908;2023-03-09T15:36:08;21.45;;;17.80;;
23684;SDS011;12020;51.384;6.908;2023-03-09T15:38:33;22.45;;;17.67;;
23684;SDS011;12020;51.384;6.908;2023-03-09T15:40:59;19.53;;;16.63;;
23684;SDS011;12020;51.384;6.908;2023-03-09T15:43:25;20.30;;;17.20;;
23684;SDS011;12020;51.384;6.908;2023-03-09T15:45:50;22.37;;;18.03;;
23684;SDS011;12020;51.384;6.908;2023-03-09T15:48:16;20.73;;;17.00;;
23684;SDS011;12020;51.384;6.908;2023-03-09T15:50:47;20.70;;;17.63;;
23684;SDS011;12020;51.384;6.908;2023-03-09T15:53:14;20.92;;;17.15;;
23684;SDS011;12020;51.384;6.908;2023-03-09T15:55:43;20.23;;;17.43;;
23684;SDS011;12020;51.384;6.908;2023-03-09T15:58:08;20.65;;;18.13;;
23684;SDS011;12020;51.384;6.908;2023-03-09T16:00:34;21.27;;;17.57;;
23684;SDS011;12020;51.384;6.908;2023-03-09T16:03:01;23.13;;;19.10;;
23684;SDS011;12020;51.384;6.908;2023-03-09T16:05:28;21.88;;;18.42;;
23684;SDS011;12020;51.384;6.908;2023-03-09T16:07:54;24.85;;;19.67;;
23684;SDS011;12020;51.384;6.908;2023-03-09T16:10:20;22.67;;;18.90;;
23684;SDS011;12020;51.384;6.908;2023-03-09T16:12:46;22.55;;;19.60;;
23684;SDS011;12020;51.384;6.908;2023-03-09T16:15:13;24.52;;;19.73;;
23684;SDS011;12020;51.384;6.908;2023-03-09T16:17:39;22.73;;;18.70;;
23684;SDS011;12020;51.384;6.908;2023-03-09T16:20:05;24.70;;;20.05;;
23684;SDS011;12020;51.384;6.908;2023-03-09T16:22:41;24.20;;;19.93;;
23684;SDS011;12020;51.384;6.908;2023-03-09T16:25:11;26.30;;;20.73;;
23684;SDS011;12020;51.384;6.908;2023-03-09T16:27:37;25.03;;;20.67;;
23684;SDS011;12020;51.384;6.908;2023-03-09T16:30:03;26.45;;;20.10;;
23684;SDS011;12020;51.384;6.908;2023-03-09T16:32:29;24.57;;;20.33;;
23684;SDS011;12020;51.384;6.908;2023-03-09T16:34:55;25.10;;;19.90;;